Time;durP1;ratioP1;P1;durP2;ratioP2;P2;SDS_P1;SDS_P2;PMS_P1;PMS_P2;Temp;Humidity;BMP_temperature;BMP_pressure;BME280_temperature;BME280_humidity;BME280_pressure;Samples;Min_cycle;Max_cycle;Signal;HPM_P1;HPM_P2
2022/06/06 00:01:48;;;;;;;12.43;10.32;;;16.50;99.90;;;;;;4973621;28;20038;-83
2022/06/06 00:04:15;;;;;;;14.35;7.13;;;16.50;99.90;;;;;;4971370;28;20039;-84
2022/06/06 00:06:42;;;;;;;11.50;10.30;;;16.40;99.90;;;;;;4983826;28;20038;-83
2022/06/06 00:09:09;;;;;;;11.05;9.85;;;16.40;99.90;;;;;;4972973;28;20066;-83
2022/06/06 00:11:36;;;;;;;11.32;10.13;;;16.40;99.90;;;;;;4958510;28;20046;-83
2022/06/06 00:14:02;;;;;;;12.32;10.00;;;16.40;99.90;;;;;;4973208;28;20049;-83
2022/06/06 00:16:28;;;;;;;10.77;9.35;;;16.30;99.90;;;;;;4958048;28;20114;-83
2022/06/06 00:18:54;;;;;;;10.30;8.50;;;16.30;99.90;;;;;;4975499;28;20074;-83
2022/06/06 00:21:19;;;;;;;9.35;6.10;;;16.30;99.90;;;;;;4959013;28;20034;-83
2022/06/06 00:23:45;;;;;;;9.68;7.55;;;16.20;99.90;;;;;;4974119;28;20455;-83
2022/06/06 00:26:13;;;;;;;10.93;8.80;;;16.20;99.90;;;;;;4972289;28;20069;-84
2022/06/06 00:28:40;;;;;;;8.57;5.18;;;16.20;99.90;;;;;;4958458;28;20041;-83
2022/06/06 00:36:37;;;;;;;8.02;4.57;;;16.20;99.90;;;;;;4972921;28;20157;-83
2022/06/06 00:39:05;;;;;;;8.27;6.35;;;16.10;99.90;;;;;;4974304;28;20040;-83
2022/06/06 00:41:31;;;;;;;8.45;6.43;;;16.20;99.90;;;;;;4958295;28;20034;-83
2022/06/06 00:44:14;;;;;;;8.68;6.53;;;16.20;99.90;;;;;;4975389;28;20038;-83
2022/06/06 00:46:46;;;;;;;9.40;6.85;;;16.20;99.90;;;;;;4970816;28;20480;-83
2022/06/06 00:49:26;;;;;;;10.30;7.15;;;16.20;99.90;;;;;;4958248;28;20122;-84
2022/06/06 00:51:53;;;;;;;7.75;5.22;;;16.20;99.90;;;;;;4974218;28;20035;-83
2022/06/06 00:54:20;;;;;;;7.45;4.95;;;16.20;99.90;;;;;;4974260;28;20395;-84
2022/06/06 00:56:55;;;;;;;7.53;5.15;;;16.20;99.90;;;;;;4956629;28;20038;-84
2022/06/06 00:59:25;;;;;;;8.07;5.32;;;16.10;99.90;;;;;;4956771;28;20419;-83
2022/06/06 01:01:52;;;;;;;7.70;3.97;;;16.10;99.90;;;;;;4958423;28;20034;-83
2022/06/06 01:04:20;;;;;;;7.85;5.68;;;16.10;99.90;;;;;;4975186;28;20038;-84
2022/06/06 01:06:46;;;;;;;8.13;5.65;;;16.10;99.90;;;;;;4972398;28;20038;-84
2022/06/06 01:09:15;;;;;;;8.57;6.80;;;16.10;99.90;;;;;;4967463;28;20046;-83
2022/06/06 01:11:50;;;;;;;8.55;6.60;;;16.10;99.90;;;;;;4953968;28;20042;-83
2022/06/06 01:14:19;;;;;;;7.65;4.45;;;16.10;99.90;;;;;;4958131;28;20097;-84
2022/06/06 01:16:57;;;;;;;8.93;6.75;;;16.00;99.90;;;;;;4971738;28;20054;-83
2022/06/06 01:19:41;;;;;;;8.77;7.00;;;16.10;99.90;;;;;;4955103;28;20038;-83
2022/06/06 01:22:10;;;;;;;9.15;5.30;;;16.10;99.90;;;;;;4972164;28;20039;-84
2022/06/06 01:24:52;;;;;;;11.88;8.65;;;16.10;99.90;;;;;;4958688;28;20725;-83
2022/06/06 01:27:23;;;;;;;17.23;15.43;;;16.10;99.90;;;;;;4956663;28;20117;-84
2022/06/06 01:30:01;;;;;;;14.23;10.80;;;16.10;99.90;;;;;;4965143;28;20100;-84
2022/06/06 01:32:27;;;;;;;24.38;21.98;;;16.10;99.90;;;;;;4956240;28;20463;-84
2022/06/06 01:34:54;;;;;;;18.00;12.98;;;16.10;99.90;;;;;;4958597;28;20046;-84
2022/06/06 01:37:30;;;;;;;22.73;20.50;;;16.10;99.90;;;;;;4970756;28;20452;-84
2022/06/06 01:39:59;;;;;;;21.42;19.33;;;16.10;99.90;;;;;;4950700;28;20121;-84
2022/06/06 01:42:42;;;;;;;17.05;13.15;;;16.10;99.90;;;;;;4970389;28;20054;-84
2022/06/06 01:45:11;;;;;;;;;;;16.00;99.90;;;;;;4954345;28;20535;-84
2022/06/06 01:47:51;;;;;;;16.08;10.90;;;15.90;99.90;;;;;;4989211;28;19918;-84
2022/06/06 01:50:19;;;;;;;23.15;20.58;;;15.90;99.90;;;;;;4972275;28;20088;-84
2022/06/06 01:52:57;;;;;;;20.38;13.98;;;15.90;99.90;;;;;;4973816;28;20038;-84
2022/06/06 01:55:25;;;;;;;24.77;22.13;;;15.90;99.90;;;;;;4971780;28;20038;-84
2022/06/06 01:57:53;;;;;;;20.15;11.90;;;15.90;99.90;;;;;;4973220;28;20034;-84
2022/06/06 02:00:19;;;;;;;25.58;22.15;;;15.80;99.90;;;;;;4970383;28;20048;-84
2022/06/06 02:02:45;;;;;;;22.92;14.18;;;15.80;99.90;;;;;;4970494;28;20511;-84
2022/06/06 02:05:12;;;;;;;27.20;24.33;;;15.70;99.90;;;;;;4967251;28;20038;-84
2022/06/06 02:07:39;;;;;;;31.83;26.33;;;15.60;99.90;;;;;;4973689;28;20038;-84
2022/06/06 02:10:06;;;;;;;26.95;18.40;;;15.60;99.90;;;;;;4957431;28;20038;-84
2022/06/06 02:12:31;;;;;;;31.83;28.10;;;15.60;99.90;;;;;;4966983;28;20070;-83
2022/06/06 02:14:57;;;;;;;30.55;19.08;;;15.60;99.90;;;;;;4974568;28;20073;-84
2022/06/06 02:17:22;;;;;;;26.38;17.85;;;15.50;99.90;;;;;;4973388;28;20042;-84
2022/06/06 02:19:48;;;;;;;35.42;30.55;;;15.50;99.90;;;;;;4957343;28;20038;-84
2022/06/06 02:22:14;;;;;;;35.05;30.13;;;15.50;99.90;;;;;;4972307;28;20046;-84
2022/06/06 02:24:39;;;;;;;31.40;20.10;;;15.50;99.90;;;;;;4976323;28;20042;-84
2022/06/06 02:27:06;;;;;;;36.13;28.58;;;15.50;99.90;;;;;;4960663;28;20044;-84
2022/06/06 02:29:32;;;;;;;30.10;18.42;;;15.40;99.90;;;;;;4976809;28;20050;-84
2022/06/06 02:31:57;;;;;;;30.67;18.75;;;15.40;99.90;;;;;;4974058;28;20045;-83
2022/06/06 02:34:23;;;;;;;33.00;19.10;;;15.40;99.90;;;;;;4976980;28;20621;-83
2022/06/06 02:36:49;;;;;;;32.17;25.02;;;15.30;99.90;;;;;;4977144;28;20042;-83
2022/06/06 02:39:14;;;;;;;30.77;17.90;;;15.30;99.90;;;;;;4976555;28;20034;-83
2022/06/06 02:41:40;;;;;;;22.35;12.88;;;15.20;99.90;;;;;;4975842;28;20147;-83
2022/06/06 02:44:05;;;;;;;33.58;25.25;;;15.20;99.90;;;;;;4960628;28;20394;-84
2022/06/06 02:46:31;;;;;;;26.95;17.58;;;15.10;99.90;;;;;;4977001;28;20045;-84
2022/06/06 02:48:56;;;;;;;38.05;27.00;;;15.10;99.90;;;;;;4976722;28;20479;-83
2022/06/06 02:51:22;;;;;;;29.13;15.77;;;15.10;99.90;;;;;;4976228;28;20038;-84
2022/06/06 02:53:49;;;;;;;42.22;29.05;;;15.00;99.90;;;;;;4973522;28;20121;-84
2022/06/06 02:56:14;;;;;;;32.38;18.08;;;15.00;99.90;;;;;;4974712;28;20046;-84
2022/06/06 02:58:40;;;;;;;31.48;17.83;;;14.90;99.90;;;;;;4974761;28;20026;-84
2022/06/06 03:01:09;;;;;;;34.25;18.02;;;14.90;99.90;;;;;;4976658;28;20045;-84
2022/06/06 03:03:35;;;;;;;43.97;30.80;;;14.80;99.90;;;;;;4973050;28;20045;-84
2022/06/06 03:06:25;;;;;;;30.05;17.48;;;14.80;99.90;;;;;;4960025;28;20464;-84
2022/06/06 03:08:58;;;;;;;31.75;17.00;;;14.80;99.90;;;;;;4970380;28;20121;-84
2022/06/06 03:11:26;;;;;;;;;;;14.70;99.90;;;;;;4976135;28;20044;-84
2022/06/06 03:14:17;;;;;;;27.30;14.40;;;14.70;99.90;;;;;;4972154;28;19925;-84
2022/06/06 03:23:07;;;;;;;14.88;8.48;;;14.70;99.90;;;;;;4975821;28;20043;-83
2022/06/06 03:25:57;;;;;;;16.73;7.83;;;14.70;99.90;;;;;;4976079;28;20053;-84
2022/06/06 03:28:44;;;;;;;19.25;10.02;;;14.70;99.90;;;;;;4975981;28;20048;-83
2022/06/06 03:31:18;;;;;;;21.15;14.57;;;14.60;99.90;;;;;;4974178;28;20043;-83
2022/06/06 03:34:19;;;;;;;18.58;8.85;;;14.60;99.90;;;;;;4965943;28;20038;-84
2022/06/06 03:37:01;;;;;;;22.50;14.77;;;14.60;99.90;;;;;;4968614;28;20040;-84
2022/06/06 03:39:59;;;;;;;18.38;8.23;;;14.60;99.90;;;;;;4966976;28;20122;-84
2022/06/06 03:42:57;;;;;;;22.58;11.27;;;14.60;99.90;;;;;;4927116;28;20542;-84
2022/06/06 03:46:10;;;;;;;19.80;9.95;;;14.50;99.90;;;;;;4956020;28;20034;-84
2022/06/06 03:48:49;;;;;;;22.25;11.48;;;14.50;99.90;;;;;;4946531;28;20069;-84
2022/06/06 03:51:45;;;;;;;20.90;9.75;;;14.50;99.90;;;;;;4966925;28;20085;-84
2022/06/06 03:54:29;;;;;;;27.48;15.88;;;14.50;99.90;;;;;;4990250;28;20042;-84
2022/06/06 03:57:14;;;;;;;16.42;8.82;;;14.50;99.90;;;;;;4956541;28;20088;-84
2022/06/06 03:59:42;;;;;;;16.75;8.13;;;14.50;99.90;;;;;;4971905;28;20045;-84
2022/06/06 04:02:09;;;;;;;23.05;14.57;;;14.40;99.90;;;;;;4990548;28;20044;-84
2022/06/06 04:04:35;;;;;;;19.90;9.35;;;14.40;99.90;;;;;;4972569;28;20107;-84
2022/06/06 04:07:02;;;;;;;22.00;14.48;;;14.40;99.90;;;;;;4975843;28;20046;-83
2022/06/06 04:09:30;;;;;;;17.95;8.40;;;14.50;99.90;;;;;;4975835;28;20443;-84
2022/06/06 04:12:19;;;;;;;20.73;13.63;;;14.50;99.90;;;;;;4972287;28;20038;-84
2022/06/06 04:14:53;;;;;;;19.25;9.98;;;14.50;99.90;;;;;;4967508;28;20531;-84
2022/06/06 04:17:35;;;;;;;18.95;9.45;;;14.50;99.90;;;;;;4972698;28;20084;-84
2022/06/06 04:20:22;;;;;;;25.98;18.13;;;14.50;99.90;;;;;;4959221;28;20073;-83
2022/06/06 04:23:22;;;;;;;20.73;10.88;;;14.60;99.90;;;;;;4959312;28;20575;-84
2022/06/06 04:26:17;;;;;;;20.55;11.13;;;14.50;99.90;;;;;;4972269;28;20050;-83
2022/06/06 04:28:58;;;;;;;19.63;10.60;;;14.50;99.90;;;;;;4942974;28;20045;-83
2022/06/06 04:31:38;;;;;;;26.95;17.48;;;14.40;99.90;;;;;;4971731;28;20030;-84
2022/06/06 04:34:18;;;;;;;19.40;10.60;;;14.50;99.90;;;;;;4973382;28;20035;-84
2022/06/06 04:36:53;;;;;;;17.27;9.43;;;14.50;99.90;;;;;;4978508;28;20041;-83
2022/06/06 04:39:35;;;;;;;25.15;17.02;;;14.50;99.90;;;;;;4973878;28;20031;-84
2022/06/06 04:42:23;;;;;;;22.13;9.85;;;14.50;99.90;;;;;;4970228;28;20049;-84
2022/06/06 04:45:06;;;;;;;20.45;11.60;;;14.50;99.90;;;;;;4966360;28;20038;-83
2022/06/06 04:47:39;;;;;;;22.52;16.95;;;14.50;99.90;;;;;;4981952;28;20067;-84
2022/06/06 04:50:08;;;;;;;23.20;16.70;;;14.50;99.90;;;;;;4972632;28;20042;-84
2022/06/06 04:52:37;;;;;;;18.05;9.82;;;14.60;99.90;;;;;;4973663;28;20096;-84
2022/06/06 04:55:06;;;;;;;22.08;16.67;;;14.60;99.90;;;;;;4955515;28;20049;-83
2022/06/06 04:57:35;;;;;;;18.45;9.55;;;14.60;99.90;;;;;;4957839;28;20666;-83
2022/06/06 05:00:03;;;;;;;17.90;9.68;;;14.60;99.90;;;;;;4971440;28;20034;-83
2022/06/06 05:02:30;;;;;;;18.05;10.07;;;14.60;99.90;;;;;;4972307;28;20062;-83
2022/06/06 05:04:55;;;;;;;19.65;14.93;;;14.60;99.90;;;;;;4970645;28;20078;-83
2022/06/06 05:07:42;;;;;;;18.35;10.50;;;14.60;99.90;;;;;;4957354;28;20065;-83
2022/06/06 05:10:23;;;;;;;16.17;9.02;;;14.60;99.90;;;;;;4974335;28;20117;-83
2022/06/06 05:13:10;;;;;;;17.65;13.23;;;14.60;99.90;;;;;;4973309;28;20041;-83
2022/06/06 05:15:57;;;;;;;16.02;8.43;;;14.70;99.90;;;;;;4973000;28;20139;-83
2022/06/06 05:18:52;;;;;;;13.25;7.95;;;14.70;99.90;;;;;;4972531;28;20046;-83
2022/06/06 05:21:24;;;;;;;13.38;7.25;;;14.60;99.90;;;;;;4956476;28;20061;-83
2022/06/06 05:24:13;;;;;;;14.98;8.18;;;14.70;99.90;;;;;;4984991;28;20046;-84
2022/06/06 05:27:08;;;;;;;13.23;9.95;;;14.70;99.90;;;;;;4972040;28;20097;-84
2022/06/06 05:29:56;;;;;;;14.20;7.40;;;14.80;99.90;;;;;;4974620;28;20496;-84
2022/06/06 05:32:49;;;;;;;16.88;12.35;;;14.80;99.90;;;;;;4971378;28;20499;-83
2022/06/06 05:35:20;;;;;;;12.75;7.28;;;14.80;99.90;;;;;;4971144;28;20050;-84
2022/06/06 05:38:01;;;;;;;16.05;8.63;;;14.80;99.90;;;;;;4956488;28;20130;-84
2022/06/06 05:40:38;;;;;;;18.92;9.70;;;14.80;99.90;;;;;;4972606;28;20407;-84
2022/06/06 05:43:15;;;;;;;19.05;10.35;;;14.80;99.90;;;;;;4970367;28;20050;-84
2022/06/06 05:45:55;;;;;;;20.23;15.73;;;14.80;99.90;;;;;;4966013;28;20076;-84
2022/06/06 05:48:26;;;;;;;19.40;10.55;;;14.90;99.90;;;;;;4974395;28;20511;-84
2022/06/06 05:51:10;;;;;;;18.58;11.45;;;14.90;99.90;;;;;;4964284;28;20035;-84
2022/06/06 05:53:56;;;;;;;20.05;11.93;;;14.90;99.90;;;;;;4966585;28;20106;-83
2022/06/06 05:56:51;;;;;;;24.67;18.70;;;14.90;99.90;;;;;;4958497;28;20034;-84
2022/06/06 05:59:52;;;;;;;26.10;20.63;;;14.90;99.90;;;;;;4961221;28;20415;-83
2022/06/06 06:02:23;;;;;;;28.55;20.35;;;14.90;99.90;;;;;;4976854;28;20483;-84
2022/06/06 06:05:01;;;;;;;21.27;12.43;;;14.90;99.90;;;;;;4976644;28;20038;-84
2022/06/06 06:07:38;;;;;;;23.33;12.70;;;14.90;99.90;;;;;;4960479;28;20037;-83
2022/06/06 06:10:14;;;;;;;22.63;12.43;;;14.90;99.90;;;;;;4972250;28;20042;-84
2022/06/06 06:12:58;;;;;;;17.83;10.85;;;15.00;99.90;;;;;;4975820;28;20105;-84
2022/06/06 06:15:38;;;;;;;18.88;12.45;;;15.00;99.90;;;;;;4975953;28;20112;-84
2022/06/06 06:18:30;;;;;;;17.73;10.40;;;15.10;99.90;;;;;;4975651;28;20109;-84
2022/06/06 06:21:10;;;;;;;23.33;16.17;;;15.10;99.90;;;;;;4986842;28;20054;-84
2022/06/06 06:23:46;;;;;;;16.98;9.43;;;15.30;99.90;;;;;;4974549;28;20034;-84
2022/06/06 06:26:13;;;;;;;21.42;15.63;;;15.30;99.90;;;;;;4976993;28;20556;-84
2022/06/06 06:28:40;;;;;;;20.75;10.43;;;15.50;99.90;;;;;;4975602;28;20111;-84
2022/06/06 06:31:36;;;;;;;22.50;12.63;;;15.50;99.90;;;;;;4977946;28;20555;-84
2022/06/06 06:34:11;;;;;;;21.55;11.77;;;15.60;99.90;;;;;;4977990;28;20070;-84
2022/06/06 06:36:42;;;;;;;20.63;15.15;;;15.70;99.90;;;;;;4976329;28;20041;-84
2022/06/06 06:39:32;;;;;;;20.40;11.88;;;15.80;99.90;;;;;;4977387;28;20057;-84
2022/06/06 06:42:39;;;;;;;20.80;15.48;;;15.90;99.90;;;;;;4977587;28;20038;-83
2022/06/06 06:45:15;;;;;;;18.20;10.60;;;16.00;99.90;;;;;;4904614;29;20044;-84
2022/06/06 06:47:49;;;;;;;21.13;15.93;;;16.00;99.90;;;;;;4882771;29;20090;-84
2022/06/06 06:50:22;;;;;;;22.35;12.77;;;16.00;99.90;;;;;;4902330;29;20048;-84
2022/06/06 06:53:18;;;;;;;24.02;15.73;;;16.00;99.90;;;;;;4897353;29;20518;-84
2022/06/06 06:55:58;;;;;;;22.90;17.05;;;15.90;99.90;;;;;;4887782;29;20048;-84
2022/06/06 06:58:40;;;;;;;22.27;13.38;;;15.90;99.90;;;;;;4885916;29;20039;-84
2022/06/06 07:01:12;;;;;;;25.60;13.77;;;15.80;99.90;;;;;;4898112;29;20123;-84
2022/06/06 07:10:08;;;;;;;21.15;12.63;;;15.60;99.90;;;;;;4899696;29;20534;-84
2022/06/06 07:12:42;;;;;;;25.42;18.00;;;15.60;99.90;;;;;;4882765;29;20298;-84
2022/06/06 07:15:16;;;;;;;23.23;13.68;;;15.60;99.90;;;;;;4915344;28;20108;-85
2022/06/06 07:17:46;;;;;;;23.15;13.63;;;15.60;99.90;;;;;;4972600;28;20048;-84
2022/06/06 07:20:14;;;;;;;25.70;19.30;;;15.60;99.90;;;;;;4958667;28;20050;-85
2022/06/06 07:23:05;;;;;;;28.85;18.48;;;15.70;99.90;;;;;;4954764;28;20038;-85
2022/06/06 07:25:38;;;;;;;27.50;15.77;;;15.90;99.90;;;;;;4958422;28;20129;-84
2022/06/06 07:28:09;;;;;;;22.90;14.77;;;16.00;99.90;;;;;;4972547;28;20031;-84
2022/06/06 07:30:41;;;;;;;22.80;13.93;;;16.20;99.90;;;;;;4976289;28;20046;-84
2022/06/06 07:33:28;;;;;;;23.02;14.57;;;16.20;99.90;;;;;;4959074;28;20113;-85
2022/06/06 07:36:03;;;;;;;24.95;18.25;;;16.30;99.90;;;;;;4960547;28;20389;-84
2022/06/06 07:39:00;;;;;;;25.02;19.25;;;16.20;99.90;;;;;;4973897;28;20046;-84
2022/06/06 07:41:55;;;;;;;23.88;19.40;;;16.20;99.90;;;;;;4974630;28;20042;-85
2022/06/06 07:44:40;;;;;;;27.13;16.13;;;16.00;99.90;;;;;;4997473;28;20053;-85
2022/06/06 07:47:24;;;;;;;30.73;21.20;;;15.90;99.90;;;;;;4955241;28;20074;-84
2022/06/06 07:50:29;;;;;;;23.55;15.57;;;16.00;99.90;;;;;;4972012;28;20066;-84
2022/06/06 07:53:19;;;;;;;23.15;15.35;;;16.20;99.90;;;;;;4925023;28;20043;-85
2022/06/06 07:55:55;;;;;;;24.80;19.13;;;16.30;99.90;;;;;;4960003;28;20408;-85
2022/06/06 07:58:32;;;;;;;23.15;17.40;;;16.50;99.90;;;;;;4976209;28;20400;-84
2022/06/06 08:01:26;;;;;;;19.02;12.60;;;16.70;99.90;;;;;;4976281;28;20125;-84
2022/06/06 08:04:03;;;;;;;14.90;11.48;;;16.70;99.90;;;;;;4963496;28;20116;-85
2022/06/06 08:07:10;;;;;;;15.95;9.43;;;16.80;99.90;;;;;;4976152;28;20050;-84
2022/06/06 08:10:01;;;;;;;15.68;8.88;;;16.80;99.90;;;;;;4976268;28;20443;-85
2022/06/06 08:12:43;;;;;;;13.05;8.70;;;16.80;99.90;;;;;;4973373;28;20449;-84
2022/06/06 08:15:34;;;;;;;12.93;7.85;;;16.90;99.90;;;;;;4971766;28;20039;-85
2022/06/06 08:18:22;;;;;;;14.32;9.02;;;17.00;99.90;;;;;;4975681;28;20132;-84
2022/06/06 08:21:21;;;;;;;12.25;7.80;;;17.00;99.90;;;;;;4975416;28;20046;-85
2022/06/06 08:23:48;;;;;;;13.18;7.13;;;17.00;99.90;;;;;;4974066;28;20076;-84
2022/06/06 08:26:15;;;;;;;11.27;6.20;;;17.00;99.90;;;;;;4976028;28;20069;-85
2022/06/06 08:28:44;;;;;;;11.00;5.60;;;17.00;99.90;;;;;;4975649;28;20042;-85
2022/06/06 08:31:09;;;;;;;12.23;5.72;;;17.00;99.90;;;;;;4976038;28;20396;-85
2022/06/06 08:33:35;;;;;;;8.93;3.65;;;17.10;99.90;;;;;;4972403;28;20034;-85
2022/06/06 08:36:45;;;;;;;8.27;3.65;;;17.10;99.90;;;;;;4986573;28;20030;-85
2022/06/06 08:39:26;;;;;;;6.93;2.78;;;17.30;99.90;;;;;;4879109;29;20076;-84
2022/06/06 08:42:17;;;;;;;9.13;3.20;;;17.40;99.90;;;;;;5109171;27;21078;-84
2022/06/06 08:45:21;;;;;;;8.40;2.92;;;17.40;99.90;;;;;;5073645;28;20409;-83
2022/06/06 08:48:03;;;;;;;9.05;3.55;;;17.50;99.90;;;;;;5099975;28;20501;-84
2022/06/06 08:51:01;;;;;;;10.20;4.07;;;17.40;99.90;;;;;;5107957;28;20044;-83
2022/06/06 08:53:53;;;;;;;7.97;3.00;;;17.40;99.90;;;;;;5107872;28;20035;-84
2022/06/06 08:56:29;;;;;;;8.85;2.90;;;17.40;99.90;;;;;;5081315;28;20127;-84
2022/06/06 08:59:04;;;;;;;9.23;3.17;;;17.40;99.90;;;;;;5107807;28;20028;-84
2022/06/06 09:01:35;;;;;;;7.88;2.75;;;17.50;99.90;;;;;;5107829;28;20051;-83
2022/06/06 09:04:30;;;;;;;7.43;3.00;;;17.70;99.90;;;;;;5090989;28;20044;-83
2022/06/06 09:07:09;;;;;;;7.30;2.58;;;17.70;99.90;;;;;;5098155;28;20047;-83
2022/06/06 09:09:38;;;;;;;8.25;2.70;;;17.70;99.90;;;;;;5106747;28;20032;-83
2022/06/06 09:12:33;;;;;;;9.18;2.97;;;17.70;99.90;;;;;;5090838;28;20028;-83
2022/06/06 09:15:01;;;;;;;9.27;2.58;;;17.60;99.90;;;;;;5106867;28;20519;-83
2022/06/06 09:18:02;;;;;;;6.80;2.78;;;17.70;99.90;;;;;;5098480;28;20093;-83
2022/06/06 09:20:47;;;;;;;6.57;2.80;;;17.70;99.90;;;;;;5086364;28;20055;-83
2022/06/06 09:23:47;;;;;;;6.80;2.58;;;17.60;99.90;;;;;;5107605;28;20523;-84
2022/06/06 09:26:16;;;;;;;9.88;2.92;;;17.70;99.90;;;;;;5078095;28;20036;-83
2022/06/06 09:29:11;;;;;;;10.10;2.60;;;17.80;99.90;;;;;;5090654;28;20074;-83
2022/06/06 09:32:13;;;;;;;7.43;2.10;;;17.90;99.90;;;;;;5106786;28;20097;-83
2022/06/06 09:35:06;;;;;;;10.52;3.30;;;18.00;99.90;;;;;;5107565;28;20096;-83
2022/06/06 09:37:49;;;;;;;6.80;2.50;;;17.90;99.90;;;;;;5102309;28;20116;-83
2022/06/06 09:40:45;;;;;;;8.20;2.50;;;17.80;99.90;;;;;;5086298;28;20048;-83
2022/06/06 09:43:54;;;;;;;6.90;2.72;;;17.90;99.90;;;;;;5107458;28;20126;-83
2022/06/06 09:46:45;;;;;;;7.43;2.05;;;17.90;99.90;;;;;;5105570;28;20412;-83
2022/06/06 09:49:20;;;;;;;7.22;2.10;;;17.90;99.90;;;;;;5076694;28;20424;-83
2022/06/06 09:52:06;;;;;;;8.13;2.35;;;17.70;99.90;;;;;;5048723;28;20041;-82
2022/06/06 10:01:39;;;;;;;7.75;2.50;;;17.70;99.90;;;;;;5076937;28;20523;-84
2022/06/06 10:04:19;;;;;;;9.57;2.55;;;17.90;99.90;;;;;;5082816;28;20044;-84
2022/06/06 10:07:23;;;;;;;7.63;2.28;;;17.90;99.90;;;;;;5056320;28;20036;-83
2022/06/06 10:10:15;;;;;;;7.32;1.95;;;17.90;99.90;;;;;;5039271;28;20037;-84
2022/06/06 10:12:55;;;;;;;5.63;1.95;;;18.00;99.90;;;;;;5056257;28;20379;-84
2022/06/06 10:15:43;;;;;;;7.20;1.90;;;18.00;99.90;;;;;;5039468;28;20041;-84
2022/06/06 10:18:37;;;;;;;9.52;2.88;;;18.00;99.90;;;;;;5055104;28;20074;-84
2022/06/06 10:21:40;;;;;;;10.27;2.50;;;18.20;99.90;;;;;;5056776;28;20521;-83
2022/06/06 10:24:31;;;;;;;7.88;2.45;;;18.30;99.90;;;;;;5065207;28;20033;-84
2022/06/06 10:27:08;;;;;;;6.07;2.35;;;18.30;99.90;;;;;;5065359;28;20037;-84
2022/06/06 10:32:36;;;;;;;5.93;2.00;;;18.40;99.90;;;;;;5071094;28;20165;-84
2022/06/06 10:35:20;;;;;;;6.45;2.17;;;18.60;99.90;;;;;;5077873;28;20040;-84
2022/06/06 10:38:04;;;;;;;7.15;2.45;;;18.60;99.90;;;;;;5058867;28;20312;-84
2022/06/06 10:40:48;;;;;;;6.07;1.92;;;18.50;99.90;;;;;;5074367;28;20041;-84
2022/06/06 10:43:28;;;;;;;5.85;1.63;;;18.60;99.90;;;;;;5061814;28;20098;-84
2022/06/06 10:46:16;;;;;;;5.70;1.52;;;18.70;99.00;;;;;;5056641;28;20486;-84
2022/06/06 10:49:07;;;;;;;5.97;1.75;;;18.80;99.90;;;;;;5055203;28;20048;-84
2022/06/06 10:52:05;;;;;;;8.98;1.90;;;18.90;98.70;;;;;;5066958;28;20044;-84
2022/06/06 10:55:00;;;;;;;6.82;1.65;;;18.90;99.00;;;;;;5073078;28;20036;-84
2022/06/06 10:57:58;;;;;;;6.32;1.50;;;18.90;99.90;;;;;;5080932;28;20081;-84
2022/06/06 11:00:46;;;;;;;6.15;1.60;;;18.80;96.30;;;;;;5089574;28;20044;-84
2022/06/06 11:03:34;;;;;;;5.68;1.60;;;18.90;99.90;;;;;;5086879;28;20524;-84
2022/06/06 11:06:19;;;;;;;4.85;1.50;;;19.00;99.90;;;;;;5055285;28;20067;-84
2022/06/06 11:09:15;;;;;;;5.60;1.67;;;19.00;99.90;;;;;;5063442;28;20040;-84
2022/06/06 11:11:50;;;;;;;4.78;1.42;;;18.80;99.90;;;;;;5045842;28;20044;-84
2022/06/06 11:14:38;;;;;;;4.93;1.30;;;18.60;99.90;;;;;;5066284;28;20055;-84
2022/06/06 11:17:26;;;;;;;3.67;1.20;;;18.30;99.90;;;;;;5083709;28;20401;-84
2022/06/06 11:20:16;;;;;;;4.68;1.30;;;18.00;99.90;;;;;;5065182;28;20048;-84
2022/06/06 11:23:02;;;;;;;4.03;1.42;;;17.80;99.90;;;;;;5066562;28;20097;-84
2022/06/06 11:25:45;;;;;;;4.15;1.38;;;17.60;99.90;;;;;;5075611;28;20033;-84
2022/06/06 11:28:29;;;;;;;5.90;1.50;;;17.50;99.90;;;;;;5054274;28;20044;-84
2022/06/06 11:31:27;;;;;;;4.97;1.58;;;17.40;99.90;;;;;;5054616;28;20044;-84
2022/06/06 11:34:23;;;;;;;4.93;1.63;;;17.50;99.90;;;;;;5055062;28;20033;-84
2022/06/06 11:37:10;;;;;;;6.32;1.90;;;17.60;99.90;;;;;;5071671;28;20184;-84
2022/06/06 11:40:11;;;;;;;4.43;1.70;;;17.70;99.90;;;;;;5090323;28;20067;-84
2022/06/06 11:42:57;;;;;;;5.95;1.88;;;17.60;99.90;;;;;;5075352;28;20074;-84
2022/06/06 11:45:59;;;;;;;5.85;1.90;;;17.60;99.90;;;;;;5053705;28;20158;-84
2022/06/06 11:49:03;;;;;;;7.00;2.22;;;17.60;99.90;;;;;;5048072;28;20039;-84
2022/06/06 11:51:47;;;;;;;;;;;17.50;99.90;;;;;;5071428;28;20489;-84
2022/06/06 11:54:49;;;;;;;5.07;2.00;;;17.40;99.90;;;;;;5057506;28;19923;-84
2022/06/06 11:57:52;;;;;;;6.03;1.77;;;17.40;99.90;;;;;;5074077;28;20051;-84
2022/06/06 12:00:26;;;;;;;6.43;1.67;;;17.20;99.90;;;;;;5071715;28;20089;-84
2022/06/06 12:03:13;;;;;;;5.95;1.52;;;17.00;99.90;;;;;;5067174;28;20039;-84
2022/06/06 12:06:12;;;;;;;5.32;1.60;;;16.90;99.90;;;;;;5086546;28;20032;-84
2022/06/06 12:09:14;;;;;;;4.50;1.70;;;16.90;99.90;;;;;;5069988;28;20058;-84
2022/06/06 12:12:27;;;;;;;5.28;1.35;;;16.90;99.90;;;;;;5057216;28;20055;-84
2022/06/06 12:15:06;;;;;;;4.87;1.60;;;16.90;99.90;;;;;;5072894;28;20475;-83
2022/06/06 12:17:54;;;;;;;3.45;1.23;;;17.10;99.90;;;;;;5071633;28;20065;-84
2022/06/06 12:20:47;;;;;;;5.03;1.35;;;17.40;99.90;;;;;;5073673;28;20048;-84
2022/06/06 12:23:25;;;;;;;3.25;1.40;;;17.60;99.90;;;;;;5057311;28;20397;-84
2022/06/06 12:26:38;;;;;;;4.93;1.60;;;17.70;99.90;;;;;;5072940;28;20131;-84
2022/06/06 12:29:46;;;;;;;4.47;1.50;;;17.60;99.90;;;;;;5054033;28;20032;-84
2022/06/06 12:32:50;;;;;;;5.65;1.75;;;17.50;99.90;;;;;;4983308;28;20052;-84
2022/06/06 12:35:32;;;;;;;6.43;1.75;;;17.30;99.90;;;;;;5036311;28;20045;-83
2022/06/06 12:38:29;;;;;;;3.92;1.25;;;17.30;99.90;;;;;;5053432;28;20041;-84
2022/06/06 12:41:14;;;;;;;4.57;1.20;;;17.30;99.90;;;;;;5054392;28;20123;-84
2022/06/06 12:43:48;;;;;;;3.15;1.00;;;17.30;99.90;;;;;;5073500;28;20036;-84
2022/06/06 12:46:54;;;;;;;4.95;1.10;;;17.30;99.90;;;;;;5073861;28;20102;-84
2022/06/06 12:49:19;;;;;;;2.28;1.02;;;17.30;99.90;;;;;;5054157;28;20040;-84
2022/06/06 12:52:07;;;;;;;3.13;0.90;;;17.40;99.90;;;;;;5068869;28;20036;-84
2022/06/06 12:57:53;;;;;;;2.92;1.27;;;17.40;99.90;;;;;;5071351;28;20583;-84
2022/06/06 13:01:37;;;;;;;3.58;1.40;;;17.40;99.90;;;;;;5064633;28;20036;-84
2022/06/06 13:03:35;;;;;;;4.95;1.60;;;17.50;99.90;;;;;;5067694;28;20108;-84
2022/06/06 13:06:30;;;;;;;4.93;1.63;;;17.50;99.90;;;;;;4999524;28;20517;-84
2022/06/06 13:09:06;;;;;;;6.63;1.95;;;17.50;99.90;;;;;;5066881;28;20048;-85
2022/06/06 13:11:53;;;;;;;5.88;2.25;;;17.40;99.90;;;;;;5090082;28;20043;-84
2022/06/06 13:14:28;;;;;;;6.63;2.67;;;17.50;99.90;;;;;;5073433;28;20051;-84
2022/06/06 13:17:17;;;;;;;6.47;2.38;;;17.40;99.90;;;;;;5069176;28;20033;-84
2022/06/06 13:20:04;;;;;;;5.32;1.80;;;17.40;99.90;;;;;;5072899;28;20036;-84
2022/06/06 13:22:39;;;;;;;5.18;2.10;;;17.30;99.90;;;;;;5075618;28;20040;-84
2022/06/06 13:25:32;;;;;;;4.97;1.70;;;17.30;99.90;;;;;;5046844;28;20037;-84
2022/06/06 13:28:19;;;;;;;4.95;1.70;;;17.40;99.90;;;;;;5053204;28;20078;-84
2022/06/06 13:30:44;;;;;;;4.18;1.60;;;17.40;99.90;;;;;;5062143;28;20186;-84
2022/06/06 13:33:55;;;;;;;3.15;1.48;;;17.30;99.90;;;;;;5057094;28;20036;-84
2022/06/06 13:36:43;;;;;;;5.35;1.90;;;17.40;99.90;;;;;;5067075;28;20424;-85
2022/06/06 13:39:11;;;;;;;3.65;1.50;;;17.40;99.90;;;;;;5061472;28;20044;-84
2022/06/06 13:42:00;;;;;;;4.07;1.50;;;17.50;99.90;;;;;;5065267;28;20406;-84
2022/06/06 13:44:39;;;;;;;4.20;1.50;;;17.50;99.90;;;;;;5056899;28;20051;-84
2022/06/06 13:48:10;;;;;;;4.32;1.17;;;17.50;99.90;;;;;;5053294;28;20553;-84
2022/06/06 13:51:09;;;;;;;3.50;1.30;;;17.40;99.90;;;;;;4949087;28;20043;-84
2022/06/06 13:53:55;;;;;;;4.47;1.58;;;17.40;99.90;;;;;;4962067;28;20053;-85
2022/06/06 13:56:39;;;;;;;4.80;1.85;;;17.40;99.90;;;;;;4950272;28;20051;-84
2022/06/06 13:59:29;;;;;;;4.20;1.85;;;17.30;99.90;;;;;;4969340;28;20432;-84
2022/06/06 14:02:09;;;;;;;5.25;1.90;;;17.20;99.90;;;;;;4944972;29;20052;-85
2022/06/06 14:04:57;;;;;;;6.25;2.55;;;17.10;99.90;;;;;;4946001;29;20485;-85
2022/06/06 14:07:51;;;;;;;7.15;2.72;;;16.90;99.90;;;;;;4948444;28;20086;-84
2022/06/06 14:10:18;;;;;;;7.03;3.20;;;16.80;99.90;;;;;;4949278;28;20488;-85
2022/06/06 14:13:34;;;;;;;7.82;2.70;;;16.70;99.90;;;;;;4931410;28;20071;-84
2022/06/06 14:16:01;;;;;;;6.65;3.38;;;16.50;99.90;;;;;;4909361;29;20075;-84
2022/06/06 14:18:33;;;;;;;7.55;3.45;;;16.50;99.90;;;;;;4911758;29;20517;-84
2022/06/06 14:21:03;;;;;;;7.05;3.33;;;16.50;99.90;;;;;;4934368;28;20055;-84